createdAt,value
2022-12-29T00:02:03.359Z,8.90
2022-12-29T00:07:08.151Z,8.89
2022-12-29T00:12:09.966Z,8.99
2022-12-29T00:17:11.702Z,9.17
2022-12-29T00:22:33.016Z,9.18
2022-12-29T00:27:54.673Z,9.19
2022-12-29T00:33:14.865Z,9.16
2022-12-29T00:38:35.253Z,9.21
2022-12-29T00:43:55.438Z,9.17
2022-12-29T00:49:15.781Z,9.27
2022-12-29T00:54:19.719Z,9.41
2022-12-29T00:59:21.667Z,9.19
2022-12-29T01:04:24.819Z,9.18
2022-12-29T01:09:45.156Z,8.95
2022-12-29T01:14:46.813Z,8.95
2022-12-29T01:19:48.567Z,8.88
2022-12-29T01:24:50.529Z,8.79
2022-12-29T01:29:52.107Z,8.75
2022-12-29T01:34:53.657Z,8.73
2022-12-29T01:39:55.305Z,8.78
2022-12-29T01:44:58.891Z,8.88
2022-12-29T01:50:04.059Z,8.87
2022-12-29T01:55:06.614Z,9.04
2022-12-29T02:00:10.619Z,9.02
2022-12-29T02:05:23.713Z,9.03
2022-12-29T02:10:26.946Z,8.98
2022-12-29T02:15:43.870Z,8.96
2022-12-29T02:20:58.903Z,9.11
2022-12-29T02:26:00.677Z,9.04
2022-12-29T02:31:21.140Z,9.24
2022-12-29T02:36:34.964Z,9.27
2022-12-29T02:41:45.475Z,9.27
2022-12-29T02:47:10.315Z,9.39
2022-12-29T02:52:20.957Z,9.54
2022-12-29T02:57:22.529Z,9.48
2022-12-29T03:02:31.877Z,9.64
2022-12-29T03:07:40.963Z,9.57
2022-12-29T03:13:07.456Z,9.75
2022-12-29T03:18:16.303Z,10.09
2022-12-29T03:23:20.844Z,10.09
2022-12-29T03:28:29.358Z,10.13
2022-12-29T03:33:32.152Z,10.16
2022-12-29T03:38:36.357Z,10.34
2022-12-29T03:43:38.462Z,10.18
2022-12-29T03:48:40.423Z,10.23
2022-12-29T03:53:42.049Z,10.31
2022-12-29T03:58:43.681Z,10.21
2022-12-29T04:03:49.970Z,10.28
2022-12-29T04:08:51.865Z,10.38
2022-12-29T04:13:53.397Z,10.48
2022-12-29T04:18:59.062Z,10.31
2022-12-29T04:24:01.005Z,10.43
2022-12-29T04:29:02.871Z,10.58
2022-12-29T04:34:18.059Z,10.61
2022-12-29T04:39:21.530Z,10.80
2022-12-29T04:44:23.394Z,10.68
2022-12-29T04:49:45.627Z,10.71
2022-12-29T04:55:09.996Z,10.96
2022-12-29T05:00:12.232Z,10.98
2022-12-29T05:05:13.968Z,10.90
2022-12-29T05:10:18.688Z,10.92
2022-12-29T05:15:21.210Z,10.81
2022-12-29T05:20:22.763Z,10.64
2022-12-29T05:25:24.406Z,10.49
2022-12-29T05:30:32.929Z,10.53
2022-12-29T05:35:34.752Z,10.51
2022-12-29T05:40:36.562Z,10.53
2022-12-29T05:45:42.520Z,10.46
2022-12-29T05:51:04.048Z,10.54
2022-12-29T05:56:19.628Z,10.36
2022-12-29T06:01:28.614Z,10.38
2022-12-29T06:06:30.226Z,10.54
2022-12-29T06:11:32.207Z,10.40
2022-12-29T06:16:35.745Z,10.44
2022-12-29T06:21:40.515Z,10.58
2022-12-29T06:26:42.927Z,10.61
2022-12-29T06:31:46.597Z,10.85
2022-12-29T06:36:48.256Z,10.72
2022-12-29T06:41:52.955Z,10.55
2022-12-29T06:47:10.766Z,10.38
2022-12-29T06:52:13.251Z,9.94
2022-12-29T06:57:15.610Z,9.95
2022-12-29T07:02:19.328Z,9.84
2022-12-29T07:07:21.188Z,9.66
2022-12-29T07:12:22.879Z,9.47
2022-12-29T07:17:24.392Z,9.37
2022-12-29T07:22:26.152Z,9.53
2022-12-29T07:27:27.764Z,9.64
2022-12-29T07:32:29.263Z,9.79
2022-12-29T07:37:30.875Z,9.73
2022-12-29T07:42:32.720Z,9.65
2022-12-29T07:47:35.092Z,9.88
2022-12-29T07:52:36.661Z,9.76
2022-12-29T07:57:38.240Z,9.95
2022-12-29T08:02:39.832Z,10.05
2022-12-29T08:07:41.365Z,10.07
2022-12-29T08:12:43.478Z,10.33
2022-12-29T08:17:44.957Z,10.29
2022-12-29T08:22:46.507Z,10.54
2022-12-29T08:27:48.191Z,10.52
2022-12-29T08:32:49.885Z,10.53
2022-12-29T08:37:51.487Z,10.55
2022-12-29T08:42:53.067Z,10.46
2022-12-29T08:47:54.735Z,10.42
2022-12-29T08:52:56.300Z,10.46
2022-12-29T08:57:57.780Z,10.53
2022-12-29T09:02:59.748Z,10.77
2022-12-29T09:08:01.382Z,10.80
2022-12-29T09:13:02.929Z,10.77
2022-12-29T09:18:04.907Z,10.91
2022-12-29T09:23:07.328Z,11.02
2022-12-29T09:28:08.882Z,11.05
2022-12-29T09:33:10.338Z,11.16
2022-12-29T09:38:12.388Z,11.29
2022-12-29T09:43:32.466Z,11.32
2022-12-29T09:48:35.690Z,11.23
2022-12-29T09:53:39.095Z,11.16
2022-12-29T09:58:42.757Z,11.38
2022-12-29T10:03:51.793Z,11.51
2022-12-29T10:08:56.260Z,11.66
2022-12-29T10:13:57.717Z,11.81
2022-12-29T10:19:17.998Z,11.97
2022-12-29T10:24:20.837Z,11.90
2022-12-29T10:29:43.601Z,12.04
2022-12-29T10:34:48.441Z,12.16
2022-12-29T10:39:54.450Z,12.10
2022-12-29T10:44:57.198Z,12.05
2022-12-29T10:50:01.584Z,12.19
2022-12-29T10:55:13.050Z,12.23
2022-12-29T11:00:21.947Z,12.38
2022-12-29T11:05:28.289Z,12.60
2022-12-29T11:10:36.965Z,12.90
2022-12-29T11:15:43.158Z,12.87
2022-12-29T11:20:44.830Z,13.07
2022-12-29T11:25:46.311Z,12.85
2022-12-29T11:30:59.735Z,13.02
2022-12-29T11:36:21.502Z,13.48
2022-12-29T11:41:27.030Z,13.57
2022-12-29T11:46:30.761Z,13.73
2022-12-29T11:51:35.088Z,13.92
2022-12-29T11:56:42.095Z,13.75
2022-12-29T12:01:43.955Z,13.31
2022-12-29T12:06:48.975Z,13.02
2022-12-29T12:11:54.789Z,13.04
2022-12-29T12:17:00.211Z,12.90
2022-12-29T12:22:05.999Z,12.89
2022-12-29T12:27:10.286Z,12.92
2022-12-29T12:32:32.113Z,13.01
2022-12-29T12:37:44.737Z,12.95
2022-12-29T12:43:01.460Z,12.93
2022-12-29T12:48:08.882Z,12.81
2022-12-29T12:53:10.385Z,12.85
2022-12-29T12:58:20.844Z,12.85
2022-12-29T13:03:41.189Z,13.07
2022-12-29T13:08:51.881Z,13.02
2022-12-29T13:13:54.848Z,13.23
2022-12-29T13:18:59.542Z,13.23
2022-12-29T13:24:05.729Z,13.16
2022-12-29T13:29:15.850Z,13.21
2022-12-29T13:34:23.311Z,13.02
2022-12-29T13:39:48.095Z,13.17
2022-12-29T13:44:52.311Z,13.08
2022-12-29T13:49:55.352Z,13.04
2022-12-29T13:55:03.214Z,12.93
2022-12-29T14:00:12.101Z,12.89
2022-12-29T14:05:22.546Z,12.78
2022-12-29T14:10:29.051Z,12.84
2022-12-29T14:15:30.613Z,12.92
2022-12-29T14:20:32.800Z,12.85
2022-12-29T14:25:53.655Z,12.88
2022-12-29T14:30:56.438Z,12.74
2022-12-29T14:35:58.500Z,12.62
2022-12-29T14:41:20.669Z,12.66
2022-12-29T14:46:22.980Z,12.61
2022-12-29T14:51:36.910Z,12.75
2022-12-29T14:56:39.240Z,12.67
2022-12-29T15:01:44.429Z,12.60
2022-12-29T15:06:46.975Z,12.55
2022-12-29T15:11:50.759Z,12.59
2022-12-29T15:16:52.305Z,12.33
2022-12-29T15:21:55.001Z,12.33
2022-12-29T15:26:56.571Z,12.24
2022-12-29T15:32:02.606Z,12.33
2022-12-29T15:37:08.000Z,12.07
2022-12-29T15:42:24.909Z,11.94
2022-12-29T15:47:29.776Z,12.08
2022-12-29T15:52:32.502Z,11.92
2022-12-29T15:57:38.453Z,11.95
2022-12-29T16:02:40.195Z,11.95
2022-12-29T16:07:52.173Z,11.68
2022-12-29T16:12:53.796Z,11.70
2022-12-29T16:17:56.680Z,11.58
2022-12-29T16:22:59.718Z,11.46
2022-12-29T16:28:02.035Z,11.34
2022-12-29T16:33:05.029Z,11.47
2022-12-29T16:38:18.856Z,11.40
2022-12-29T16:43:22.136Z,11.21
2022-12-29T16:48:26.490Z,11.23
2022-12-29T16:53:30.993Z,11.23
2022-12-29T16:58:34.421Z,11.26
2022-12-29T17:03:41.155Z,11.34
2022-12-29T17:08:43.603Z,11.28
2022-12-29T17:13:45.106Z,11.09
2022-12-29T17:18:46.585Z,11.11
2022-12-29T17:23:48.325Z,11.14
2022-12-29T17:28:50.056Z,11.03
2022-12-29T17:33:53.230Z,10.90
2022-12-29T17:38:54.889Z,10.89
2022-12-29T17:43:56.742Z,10.85
2022-12-29T17:48:58.742Z,10.73
2022-12-29T17:54:00.497Z,10.66
2022-12-29T17:59:02.111Z,10.69
2022-12-29T18:04:03.710Z,10.66
2022-12-29T18:09:08.521Z,10.55
2022-12-29T18:14:18.753Z,10.41
2022-12-29T18:19:20.247Z,10.28
2022-12-29T18:24:21.792Z,10.32
2022-12-29T18:29:23.379Z,10.16
2022-12-29T18:34:25.052Z,10.00
2022-12-29T18:39:29.728Z,9.66
2022-12-29T18:44:31.462Z,9.56
2022-12-29T18:49:32.949Z,9.43
2022-12-29T18:54:34.620Z,9.17
2022-12-29T18:59:36.202Z,9.15
2022-12-29T19:04:37.772Z,9.28
2022-12-29T19:09:39.347Z,9.59
2022-12-29T19:14:40.877Z,9.74
2022-12-29T19:19:43.038Z,9.93
2022-12-29T19:24:44.612Z,9.81
2022-12-29T19:29:46.431Z,9.81
2022-12-29T19:34:48.960Z,9.87
2022-12-29T19:39:50.549Z,9.55
2022-12-29T19:44:52.840Z,9.62
2022-12-29T19:49:54.539Z,9.62
2022-12-29T19:54:56.453Z,9.53
2022-12-29T19:59:58.628Z,9.41
2022-12-29T20:05:00.394Z,9.65
2022-12-29T20:10:02.084Z,9.93
2022-12-29T20:15:05.023Z,10.01
2022-12-29T20:20:07.945Z,9.81
2022-12-29T20:25:43.753Z,9.78
2022-12-29T20:30:31.865Z,9.64
2022-12-29T20:35:33.469Z,9.69
2022-12-29T20:40:40.670Z,9.56
2022-12-29T20:45:46.030Z,9.72
2022-12-29T20:50:47.625Z,9.29
2022-12-29T20:55:50.772Z,9.37
2022-12-29T21:00:52.850Z,9.44
2022-12-29T21:05:56.015Z,9.62
2022-12-29T21:11:00.936Z,9.52
2022-12-29T21:16:04.557Z,9.56
2022-12-29T21:21:07.599Z,9.66
2022-12-29T21:26:09.535Z,9.63
2022-12-29T21:31:12.903Z,9.53
2022-12-29T21:36:14.478Z,9.53
2022-12-29T21:41:17.589Z,9.46
2022-12-29T21:46:23.146Z,9.42
2022-12-29T21:51:43.369Z,9.40
2022-12-29T21:56:45.860Z,9.30
2022-12-29T22:02:06.405Z,9.10
2022-12-29T22:07:27.372Z,9.21
2022-12-29T22:12:48.203Z,9.21
2022-12-29T22:17:53.624Z,9.06
2022-12-29T22:22:55.484Z,9.15
2022-12-29T22:27:59.546Z,9.20
2022-12-29T22:33:02.058Z,8.91
2022-12-29T22:38:03.612Z,8.72
2022-12-29T22:43:11.067Z,8.79
2022-12-29T22:48:16.829Z,8.71
2022-12-29T22:53:18.376Z,8.64
2022-12-29T22:58:19.930Z,8.63
2022-12-29T23:03:21.592Z,8.81
2022-12-29T23:08:23.238Z,8.74
2022-12-29T23:13:24.792Z,8.73
2022-12-29T23:18:26.688Z,8.83
2022-12-29T23:23:49.647Z,8.89
2022-12-29T23:28:57.849Z,8.73
2022-12-29T23:34:02.751Z,8.84
2022-12-29T23:39:04.753Z,8.97
2022-12-29T23:44:06.328Z,8.96
2022-12-29T23:49:08.604Z,8.92
2022-12-29T23:54:10.142Z,8.94
2022-12-29T23:59:11.708Z,8.96
